Terminal Aerodrome Forecast
Issued by NWS

Home | Current Version | Previous Version | Text Only | Print | Product List | Glossary On
Versions: 1 2 3 4 5 6 7 8 9 10 11 12 13 14 15 16 17 18
859
FTPA31 PHFO 010524
TAFHOG
TAF
PHOG 010524Z 0106/0206 05011KT P6SM FEW035
     FM012000 05020G30KT P6SM FEW035 SCT050
     FM020500 05012G20KT P6SM FEW035 SCT050
      AMD LTD TO VIS AND WIND 0109/0116=

USA.gov is the U.S. government's official web portal to all federal, state and local government web resources and services.